createdAt,value
2022-12-05T00:00:17.235Z,11.60
2022-12-05T00:02:43.708Z,11.70
2022-12-05T00:05:10.160Z,11.70
2022-12-05T00:07:36.718Z,11.60
2022-12-05T00:10:03.206Z,11.50
2022-12-05T00:12:29.681Z,11.60
2022-12-05T00:14:56.134Z,11.60
2022-12-05T00:17:22.599Z,11.50
2022-12-05T00:19:53.581Z,11.50
2022-12-05T00:22:25.891Z,11.50
2022-12-05T00:24:52.358Z,11.60
2022-12-05T00:27:18.818Z,11.60
2022-12-05T00:29:45.287Z,11.60
2022-12-05T00:32:11.861Z,11.60
2022-12-05T00:34:38.367Z,11.50
2022-12-05T00:37:04.852Z,11.50
2022-12-05T00:39:31.316Z,11.40
2022-12-05T00:41:57.806Z,11.60
2022-12-05T00:44:24.273Z,11.50
2022-12-05T00:46:50.764Z,11.70
2022-12-05T00:49:17.227Z,11.70
2022-12-05T00:51:43.715Z,11.50
2022-12-05T00:54:10.194Z,11.60
2022-12-05T00:56:36.649Z,11.60
2022-12-05T00:59:03.105Z,11.70
2022-12-05T01:01:29.628Z,11.60
2022-12-05T01:03:56.155Z,11.60
2022-12-05T01:06:22.613Z,11.50
2022-12-05T01:08:49.093Z,11.50
2022-12-05T01:11:15.563Z,11.60
2022-12-05T01:13:42.048Z,11.50
2022-12-05T01:16:08.538Z,11.60
2022-12-05T01:18:35.061Z,11.50
2022-12-05T01:21:01.523Z,11.60
2022-12-05T01:23:28.141Z,11.60
2022-12-05T01:25:54.610Z,11.50
2022-12-05T01:28:21.178Z,11.50
2022-12-05T01:30:47.677Z,11.40
2022-12-05T01:33:14.133Z,11.60
2022-12-05T01:35:40.604Z,11.50
2022-12-05T01:38:07.087Z,11.60
2022-12-05T01:40:33.549Z,11.50
2022-12-05T01:43:00.043Z,11.50
2022-12-05T01:45:26.505Z,11.50
2022-12-05T01:47:52.989Z,11.50
2022-12-05T01:50:19.450Z,11.50
2022-12-05T01:52:45.939Z,11.40
2022-12-05T01:55:12.404Z,11.40
2022-12-05T01:57:38.901Z,11.40
2022-12-05T02:00:05.375Z,11.40
2022-12-05T02:02:32.004Z,11.50
2022-12-05T02:04:58.510Z,11.40
2022-12-05T02:07:24.984Z,11.50
2022-12-05T02:09:51.446Z,11.60
2022-12-05T02:12:17.905Z,11.50
2022-12-05T02:14:49.953Z,11.50
2022-12-05T02:17:16.396Z,11.50
2022-12-05T02:19:42.876Z,11.40
2022-12-05T02:22:09.349Z,11.30
2022-12-05T02:24:35.809Z,11.40
2022-12-05T02:27:02.272Z,11.50
2022-12-05T02:29:28.739Z,11.50
2022-12-05T02:31:55.240Z,11.40
2022-12-05T02:34:21.738Z,11.30
2022-12-05T02:36:48.227Z,11.20
2022-12-05T02:39:14.711Z,11.30
2022-12-05T02:41:41.203Z,11.40
2022-12-05T02:44:07.666Z,11.40
2022-12-05T02:46:34.108Z,11.50
2022-12-05T02:49:00.584Z,11.40
2022-12-05T02:51:27.060Z,11.50
2022-12-05T02:53:53.522Z,11.50
2022-12-05T02:56:19.979Z,11.40
2022-12-05T02:58:46.438Z,11.40
2022-12-05T03:01:12.958Z,11.40
2022-12-05T03:03:39.465Z,11.40
2022-12-05T03:06:05.953Z,11.40
2022-12-05T03:08:32.441Z,11.40
2022-12-05T03:10:58.893Z,11.40
2022-12-05T03:13:25.351Z,11.50
2022-12-05T03:15:51.814Z,11.10
2022-12-05T03:18:18.291Z,11.30
2022-12-05T03:20:44.775Z,11.20
2022-12-05T03:23:11.249Z,11.20
2022-12-05T03:25:37.715Z,11.30
2022-12-05T03:28:04.184Z,11.50
2022-12-05T03:30:30.711Z,11.50
2022-12-05T03:32:57.215Z,11.60
2022-12-05T03:35:23.687Z,11.50
2022-12-05T03:37:50.159Z,11.40
2022-12-05T03:40:16.629Z,11.30
2022-12-05T03:42:43.113Z,11.40
2022-12-05T03:45:09.594Z,11.40
2022-12-05T03:47:36.052Z,11.40
2022-12-05T03:50:02.529Z,11.30
2022-12-05T03:52:29.006Z,11.40
2022-12-05T03:54:55.482Z,11.40
2022-12-05T03:57:21.941Z,11.50
2022-12-05T03:59:48.413Z,11.40
2022-12-05T04:02:14.906Z,11.40
2022-12-05T04:04:41.374Z,11.40
2022-12-05T04:07:07.816Z,11.50
2022-12-05T04:09:34.282Z,11.40
2022-12-05T04:12:00.739Z,11.40
2022-12-05T04:14:27.206Z,11.40
2022-12-05T04:16:53.652Z,11.50
2022-12-05T04:19:20.135Z,11.50
2022-12-05T04:21:46.587Z,11.50
2022-12-05T04:24:13.081Z,11.40
2022-12-05T04:26:39.541Z,11.50
2022-12-05T04:29:06.009Z,11.40
2022-12-05T04:31:32.586Z,11.50
2022-12-05T04:33:59.131Z,11.40
2022-12-05T04:36:25.620Z,11.40
2022-12-05T04:38:52.077Z,11.50
2022-12-05T04:41:18.556Z,11.40
2022-12-05T04:43:45.025Z,11.30
2022-12-05T04:46:11.564Z,11.40
2022-12-05T04:48:38.098Z,11.40
2022-12-05T04:51:04.570Z,11.40
2022-12-05T04:53:31.042Z,11.40
2022-12-05T04:55:57.521Z,11.30
2022-12-05T04:58:23.993Z,11.50
2022-12-05T05:00:50.464Z,11.40
2022-12-05T05:03:17.023Z,11.50
2022-12-05T05:05:44.106Z,11.40
2022-12-05T05:08:10.588Z,11.40
2022-12-05T05:10:37.071Z,11.40
2022-12-05T05:13:03.539Z,11.50
2022-12-05T05:15:30.089Z,11.50
2022-12-05T05:17:56.662Z,11.40
2022-12-05T05:20:23.138Z,11.40
2022-12-05T05:22:49.600Z,11.50
2022-12-05T05:25:16.071Z,11.50
2022-12-05T05:27:42.543Z,11.50
2022-12-05T05:30:09.030Z,11.40
2022-12-05T05:32:35.501Z,11.40
2022-12-05T05:35:01.966Z,11.40
2022-12-05T05:37:28.451Z,11.50
2022-12-05T05:39:55.012Z,11.40
2022-12-05T05:42:21.588Z,11.50
2022-12-05T05:44:48.059Z,11.50
2022-12-05T05:47:14.544Z,11.40
2022-12-05T05:49:41.012Z,11.50
2022-12-05T05:52:07.484Z,11.50
2022-12-05T05:54:33.946Z,11.40
2022-12-05T05:57:00.427Z,11.40
2022-12-05T05:59:26.887Z,11.50
2022-12-05T06:01:53.334Z,11.40
2022-12-05T06:04:19.860Z,11.40
2022-12-05T06:06:46.353Z,11.40
2022-12-05T06:09:12.809Z,11.50
2022-12-05T06:11:39.323Z,11.30
2022-12-05T06:14:05.780Z,11.30
2022-12-05T06:16:32.311Z,11.50
2022-12-05T06:18:58.798Z,11.40
2022-12-05T06:21:25.298Z,11.40
2022-12-05T06:23:51.788Z,11.40
2022-12-05T06:26:18.262Z,11.40
2022-12-05T06:28:44.713Z,11.40
2022-12-05T06:31:11.253Z,11.50
2022-12-05T06:33:37.770Z,11.50
2022-12-05T06:36:04.236Z,11.50
2022-12-05T06:38:30.702Z,11.40
2022-12-05T06:40:57.160Z,11.40
2022-12-05T06:43:23.602Z,11.40
2022-12-05T06:45:50.100Z,11.40
2022-12-05T06:48:16.575Z,11.40
2022-12-05T06:50:43.042Z,11.30
2022-12-05T06:53:09.504Z,11.30
2022-12-05T06:55:35.990Z,11.40
2022-12-05T06:58:02.461Z,11.40
2022-12-05T07:00:32.201Z,11.40
2022-12-05T07:02:58.688Z,11.50
2022-12-05T07:05:25.153Z,11.40
2022-12-05T07:07:51.714Z,11.40
2022-12-05T07:10:18.252Z,11.30
2022-12-05T07:12:44.742Z,11.30
2022-12-05T07:15:11.236Z,11.40
2022-12-05T07:17:37.704Z,11.30
2022-12-05T07:20:04.176Z,11.40
2022-12-05T07:22:30.621Z,11.40
2022-12-05T07:24:57.096Z,11.40
2022-12-05T07:27:27.664Z,11.40
2022-12-05T07:29:54.795Z,11.50
2022-12-05T07:32:21.263Z,11.40
2022-12-05T07:34:50.883Z,11.40
2022-12-05T07:37:21.324Z,11.40
2022-12-05T07:39:47.787Z,11.30
2022-12-05T07:42:14.281Z,11.40
2022-12-05T07:44:40.765Z,11.40
2022-12-05T07:47:07.241Z,11.50
2022-12-05T07:49:33.722Z,11.40
2022-12-05T07:52:00.194Z,11.40
2022-12-05T07:54:26.667Z,11.40
2022-12-05T07:56:56.250Z,11.40
2022-12-05T07:59:22.714Z,11.50
2022-12-05T08:01:49.271Z,11.40
2022-12-05T08:04:16.132Z,11.40
2022-12-05T08:06:42.654Z,11.30
2022-12-05T08:09:09.102Z,11.30
2022-12-05T08:11:35.569Z,11.40
2022-12-05T08:14:02.023Z,11.30
2022-12-05T08:16:28.536Z,11.30
2022-12-05T08:18:55.062Z,11.30
2022-12-05T08:21:21.538Z,11.30
2022-12-05T08:23:48.024Z,11.30
2022-12-05T08:26:14.491Z,11.20
2022-12-05T08:28:40.959Z,11.30
2022-12-05T08:31:07.523Z,11.40
2022-12-05T08:33:34.082Z,11.40
2022-12-05T08:36:00.566Z,11.50
2022-12-05T08:38:27.042Z,11.40
2022-12-05T08:40:53.507Z,11.40
2022-12-05T08:43:19.971Z,11.40
2022-12-05T08:45:46.491Z,11.40
2022-12-05T08:48:13.002Z,11.40
2022-12-05T08:50:39.487Z,11.30
2022-12-05T08:53:05.963Z,11.40
2022-12-05T08:55:32.464Z,11.30
2022-12-05T08:57:58.923Z,11.40
2022-12-05T09:00:25.465Z,11.30
2022-12-05T09:02:56.580Z,11.30
2022-12-05T09:05:28.371Z,11.40
2022-12-05T09:07:55.518Z,11.30
2022-12-05T09:10:22.020Z,11.30
2022-12-05T09:12:48.493Z,11.30
2022-12-05T09:15:14.945Z,11.30
2022-12-05T09:17:41.425Z,11.30
2022-12-05T09:20:07.909Z,11.30
2022-12-05T09:22:34.394Z,11.30
2022-12-05T09:25:01.024Z,11.30
2022-12-05T09:27:27.528Z,11.30
2022-12-05T09:29:54.026Z,11.30
2022-12-05T09:32:20.501Z,11.40
2022-12-05T09:34:46.973Z,11.30
2022-12-05T09:37:37.462Z,11.30
2022-12-05T09:39:59.856Z,11.40
2022-12-05T09:42:26.326Z,11.30
2022-12-05T09:44:52.813Z,11.30
2022-12-05T09:47:19.294Z,11.40
2022-12-05T09:49:45.768Z,11.30
2022-12-05T09:52:12.249Z,11.40
2022-12-05T09:54:38.715Z,11.40
2022-12-05T09:57:05.229Z,11.30
2022-12-05T09:59:31.702Z,11.40
2022-12-05T10:01:58.338Z,11.40
2022-12-05T10:04:24.982Z,11.40
2022-12-05T10:06:51.561Z,11.40
2022-12-05T10:09:18.025Z,11.30
2022-12-05T10:11:50.374Z,11.30
2022-12-05T10:14:16.834Z,11.40
2022-12-05T10:16:43.423Z,11.40
2022-12-05T10:19:09.943Z,11.30
2022-12-05T10:21:36.414Z,11.40
2022-12-05T10:24:02.874Z,11.40
2022-12-05T10:26:29.356Z,11.40
2022-12-05T10:28:55.847Z,11.30
2022-12-05T10:31:22.338Z,11.30
2022-12-05T10:33:48.863Z,11.40
2022-12-05T10:36:15.332Z,11.20
2022-12-05T10:38:41.795Z,11.30
2022-12-05T10:41:08.266Z,11.30
2022-12-05T10:43:34.724Z,11.30
2022-12-05T10:46:02.318Z,11.20
2022-12-05T10:48:28.848Z,11.30
2022-12-05T10:50:56.358Z,11.30
2022-12-05T10:53:22.854Z,11.30
2022-12-05T10:56:21.604Z,11.20
2022-12-05T10:58:35.810Z,11.30
2022-12-05T11:01:02.276Z,11.40
2022-12-05T11:03:29.042Z,11.30
2022-12-05T11:05:55.526Z,11.30
2022-12-05T11:08:41.390Z,11.40
2022-12-05T11:11:08.463Z,11.30
2022-12-05T11:13:34.945Z,11.30
2022-12-05T11:16:01.441Z,11.30
2022-12-05T11:18:27.955Z,11.30
2022-12-05T11:20:54.426Z,11.30
2022-12-05T11:23:20.896Z,11.20
2022-12-05T11:25:47.377Z,11.20
2022-12-05T11:28:13.841Z,11.20
2022-12-05T11:30:40.319Z,11.20
2022-12-05T11:33:06.782Z,11.30
2022-12-05T11:35:38.421Z,11.20
2022-12-05T11:38:04.947Z,11.10
2022-12-05T11:40:36.473Z,11.30
2022-12-05T11:43:04.580Z,11.20
2022-12-05T11:45:31.072Z,11.30
2022-12-05T11:47:57.524Z,11.20
2022-12-05T11:50:23.995Z,11.20
2022-12-05T11:52:50.468Z,11.20
2022-12-05T11:55:17.078Z,11.30
2022-12-05T11:57:48.868Z,11.30
2022-12-05T12:00:18.432Z,11.30
2022-12-05T12:02:44.996Z,11.20
2022-12-05T12:05:11.586Z,11.20
2022-12-05T12:07:38.082Z,11.10
2022-12-05T12:10:08.439Z,11.20
2022-12-05T12:12:36.382Z,11.20
2022-12-05T12:15:02.879Z,11.30
2022-12-05T12:17:29.364Z,11.30
2022-12-05T12:19:55.847Z,11.20
2022-12-05T12:22:22.322Z,11.10
2022-12-05T12:24:48.819Z,11.20
2022-12-05T12:27:15.276Z,11.20
2022-12-05T12:29:43.970Z,11.10
2022-12-05T12:32:10.502Z,11.20
2022-12-05T12:34:37.020Z,11.10
2022-12-05T12:37:03.492Z,11.10
2022-12-05T12:39:29.955Z,11.10
2022-12-05T12:41:56.416Z,11.10
2022-12-05T12:44:22.890Z,11.10
2022-12-05T12:46:49.372Z,11.00
2022-12-05T12:49:20.666Z,11.10
2022-12-05T12:51:47.142Z,11.10
2022-12-05T12:54:13.621Z,11.10
2022-12-05T12:56:40.091Z,11.20
2022-12-05T12:59:06.569Z,11.10
2022-12-05T13:01:33.127Z,11.10
2022-12-05T13:03:59.696Z,11.00
2022-12-05T13:06:26.185Z,11.10
2022-12-05T13:08:52.663Z,11.20
2022-12-05T13:11:19.124Z,11.10
2022-12-05T13:13:45.571Z,11.00
2022-12-05T13:16:12.111Z,11.20
2022-12-05T13:18:38.594Z,11.20
2022-12-05T13:21:05.050Z,11.30
2022-12-05T13:23:31.519Z,11.10
2022-12-05T13:25:57.990Z,11.10
2022-12-05T13:28:26.239Z,11.20
2022-12-05T13:30:52.901Z,11.10
2022-12-05T13:33:19.373Z,11.10
2022-12-05T13:35:45.853Z,11.10
2022-12-05T13:38:12.319Z,11.10
2022-12-05T13:40:38.809Z,11.10
2022-12-05T13:43:05.262Z,11.10
2022-12-05T13:45:31.806Z,11.20
2022-12-05T13:47:58.367Z,11.10
2022-12-05T13:50:24.846Z,11.10
2022-12-05T13:52:51.317Z,11.00
2022-12-05T13:55:17.788Z,11.10
2022-12-05T13:57:44.260Z,11.10
2022-12-05T14:00:10.727Z,11.10
2022-12-05T14:02:37.275Z,11.00
2022-12-05T14:05:03.805Z,11.00
2022-12-05T14:07:30.320Z,11.00
2022-12-05T14:09:57.155Z,10.90
2022-12-05T14:12:23.930Z,11.00
2022-12-05T14:14:50.394Z,11.00
2022-12-05T14:17:16.882Z,11.00
2022-12-05T14:19:43.366Z,11.00
2022-12-05T14:22:09.849Z,11.00
2022-12-05T14:24:36.313Z,11.00
2022-12-05T14:27:02.758Z,10.90
2022-12-05T14:29:29.216Z,10.90
2022-12-05T14:31:58.450Z,10.90
2022-12-05T14:34:28.973Z,10.90
2022-12-05T14:36:55.438Z,10.90
2022-12-05T14:39:21.890Z,11.00
2022-12-05T14:41:48.364Z,10.90
2022-12-05T14:44:14.833Z,10.90
2022-12-05T14:46:41.363Z,10.90
2022-12-05T14:49:07.833Z,10.90
2022-12-05T14:51:34.326Z,10.90
2022-12-05T14:54:02.550Z,11.00
2022-12-05T14:56:29.040Z,11.00
2022-12-05T14:58:55.513Z,11.00
2022-12-05T15:01:22.107Z,10.90
2022-12-05T15:03:48.646Z,10.90
2022-12-05T15:06:15.125Z,10.90
2022-12-05T15:08:41.578Z,11.00
2022-12-05T15:11:08.068Z,11.10
2022-12-05T15:13:34.541Z,11.00
2022-12-05T15:16:01.068Z,10.80
2022-12-05T15:18:27.537Z,10.90
2022-12-05T15:20:54.016Z,10.80
2022-12-05T15:23:20.475Z,10.90
2022-12-05T15:25:46.971Z,11.00
2022-12-05T15:28:13.425Z,11.00
2022-12-05T15:30:39.932Z,11.10
2022-12-05T15:33:06.431Z,11.00
2022-12-05T15:35:32.920Z,10.90
2022-12-05T15:37:59.391Z,11.00
2022-12-05T15:40:25.870Z,11.00
2022-12-05T15:42:52.341Z,11.00
2022-12-05T15:45:18.808Z,11.00
2022-12-05T15:47:45.282Z,11.10
2022-12-05T15:50:11.760Z,11.10
2022-12-05T15:52:38.235Z,11.10
2022-12-05T15:55:04.703Z,11.10
2022-12-05T15:57:31.172Z,11.00
2022-12-05T15:59:57.819Z,11.10
2022-12-05T16:02:24.472Z,11.20
2022-12-05T16:04:50.990Z,11.20
2022-12-05T16:07:17.463Z,11.10
2022-12-05T16:09:43.944Z,10.90
2022-12-05T16:12:10.407Z,10.90
2022-12-05T16:14:58.895Z,10.90
2022-12-05T16:17:23.323Z,10.90
2022-12-05T16:19:49.807Z,10.90
2022-12-05T16:22:16.261Z,11.00
2022-12-05T16:24:42.739Z,11.00
2022-12-05T16:27:09.242Z,11.00
2022-12-05T16:29:35.709Z,10.90
2022-12-05T16:32:02.199Z,11.00
2022-12-05T16:34:28.646Z,10.90
2022-12-05T16:36:55.126Z,10.80
2022-12-05T16:39:21.585Z,10.90
2022-12-05T16:41:48.067Z,11.00
2022-12-05T16:44:20.003Z,11.10
2022-12-05T16:46:49.587Z,11.00
2022-12-05T16:49:16.098Z,11.10
2022-12-05T16:51:42.591Z,11.00
2022-12-05T16:54:09.052Z,10.90
2022-12-05T16:56:35.547Z,11.00
2022-12-05T16:59:01.994Z,11.00
2022-12-05T17:01:28.606Z,10.90
2022-12-05T17:03:55.168Z,11.00
2022-12-05T17:06:21.704Z,10.90
2022-12-05T17:08:48.178Z,10.90
2022-12-05T17:11:14.642Z,10.90
2022-12-05T17:13:41.107Z,11.00
2022-12-05T17:16:07.634Z,11.00
2022-12-05T17:18:34.148Z,11.00
2022-12-05T17:21:00.629Z,10.70
2022-12-05T17:23:27.097Z,10.90
2022-12-05T17:25:53.600Z,10.90
2022-12-05T17:28:20.078Z,10.80
2022-12-05T17:30:46.556Z,10.80
2022-12-05T17:33:13.027Z,10.90
2022-12-05T17:35:39.501Z,10.90
2022-12-05T17:38:05.983Z,10.90
2022-12-05T17:40:32.445Z,11.00
2022-12-05T17:42:58.926Z,10.90
2022-12-05T17:45:25.418Z,11.00
2022-12-05T17:47:51.928Z,11.00
2022-12-05T17:50:18.390Z,10.90
2022-12-05T17:52:44.873Z,11.00
2022-12-05T17:55:14.878Z,11.00
2022-12-05T17:57:41.380Z,11.00
2022-12-05T18:00:07.846Z,11.00
2022-12-05T18:02:34.397Z,10.80
2022-12-05T18:05:01.089Z,10.90
2022-12-05T18:07:27.677Z,10.70
2022-12-05T18:09:54.134Z,10.80
2022-12-05T18:12:20.576Z,10.80
2022-12-05T18:14:47.048Z,10.90
2022-12-05T18:17:16.555Z,11.00
2022-12-05T18:19:43.030Z,11.00
2022-12-05T18:22:09.506Z,10.90
2022-12-05T18:24:35.990Z,10.90
2022-12-05T18:27:02.448Z,10.90
2022-12-05T18:29:28.931Z,10.90
2022-12-05T18:31:55.467Z,10.80
2022-12-05T18:34:21.982Z,10.80
2022-12-05T18:36:48.449Z,10.90
2022-12-05T18:39:14.933Z,10.90
2022-12-05T18:41:41.383Z,10.90
2022-12-05T18:44:07.846Z,10.80
2022-12-05T18:46:34.363Z,10.80
2022-12-05T18:49:03.556Z,10.80
2022-12-05T18:51:30.189Z,10.80
2022-12-05T18:53:56.792Z,10.60
2022-12-05T18:56:24.575Z,10.50
2022-12-05T18:58:51.710Z,10.50
2022-12-05T19:01:18.317Z,10.60
2022-12-05T19:03:44.809Z,10.60
2022-12-05T19:06:11.292Z,10.70
2022-12-05T19:08:37.758Z,10.70
2022-12-05T19:11:04.898Z,10.70
2022-12-05T19:13:31.440Z,10.60
2022-12-05T19:15:57.906Z,10.60
2022-12-05T19:18:24.369Z,10.50
2022-12-05T19:20:50.859Z,10.60
2022-12-05T19:23:17.332Z,10.50
2022-12-05T19:25:43.813Z,10.50
2022-12-05T19:28:10.309Z,10.40
2022-12-05T19:30:36.800Z,10.40
2022-12-05T19:33:03.280Z,10.40
2022-12-05T19:35:29.786Z,10.40
2022-12-05T19:37:56.240Z,10.60
2022-12-05T19:40:26.814Z,10.60
2022-12-05T19:42:53.259Z,10.70
2022-12-05T19:45:19.732Z,10.70
2022-12-05T19:47:46.191Z,10.60
2022-12-05T19:50:12.644Z,10.50
2022-12-05T19:52:39.107Z,10.50
2022-12-05T19:55:05.536Z,10.50
2022-12-05T19:57:31.982Z,10.40
2022-12-05T19:59:58.922Z,10.50
2022-12-05T20:02:25.710Z,10.50
2022-12-05T20:04:52.232Z,10.40
2022-12-05T20:07:18.716Z,10.40
2022-12-05T20:09:45.192Z,10.50
2022-12-05T20:12:14.926Z,10.40
2022-12-05T20:14:41.392Z,10.50
2022-12-05T20:17:07.905Z,10.50
2022-12-05T20:19:34.413Z,10.60
2022-12-05T20:22:00.890Z,10.80
2022-12-05T20:24:27.365Z,10.70
2022-12-05T20:26:53.819Z,10.60
2022-12-05T20:29:20.282Z,10.60
2022-12-05T20:31:46.745Z,10.40
2022-12-05T20:34:13.206Z,10.40
2022-12-05T20:36:39.694Z,10.30
2022-12-05T20:39:06.151Z,10.30
2022-12-05T20:41:32.725Z,10.20
2022-12-05T20:43:59.236Z,10.20
2022-12-05T20:46:25.768Z,10.30
2022-12-05T20:48:52.333Z,10.40
2022-12-05T20:51:18.838Z,10.30
2022-12-05T20:53:45.297Z,10.20
2022-12-05T20:56:11.784Z,10.40
2022-12-05T20:58:38.233Z,10.40
2022-12-05T21:01:04.800Z,10.30
2022-12-05T21:03:31.369Z,10.20
2022-12-05T21:05:57.856Z,10.40
2022-12-05T21:08:24.315Z,10.20
2022-12-05T21:10:50.805Z,10.20
2022-12-05T21:13:17.250Z,10.30
2022-12-05T21:15:43.779Z,10.20
2022-12-05T21:18:10.270Z,10.10
2022-12-05T21:20:41.943Z,10.20
2022-12-05T21:23:08.805Z,10.30
2022-12-05T21:25:35.283Z,10.10
2022-12-05T21:28:01.751Z,10.00
2022-12-05T21:30:28.214Z,10.30
2022-12-05T21:32:54.688Z,10.30
2022-12-05T21:35:21.162Z,10.40
2022-12-05T21:37:47.625Z,10.20
2022-12-05T21:40:14.096Z,10.10
2022-12-05T21:42:40.558Z,10.20
2022-12-05T21:45:07.059Z,10.10
2022-12-05T21:47:33.527Z,10.10
2022-12-05T21:50:00.211Z,10.20
2022-12-05T21:52:26.826Z,10.10
2022-12-05T21:54:53.293Z,10.20
2022-12-05T21:57:19.767Z,10.20
2022-12-05T21:59:46.241Z,10.20
2022-12-05T22:02:12.715Z,10.40
2022-12-05T22:04:39.195Z,10.30
2022-12-05T22:07:05.659Z,10.40
2022-12-05T22:09:32.116Z,10.20
2022-12-05T22:11:58.663Z,10.10
2022-12-05T22:14:25.091Z,10.30
2022-12-05T22:16:51.570Z,10.20
2022-12-05T22:19:18.021Z,10.30
2022-12-05T22:21:44.481Z,10.20
2022-12-05T22:24:10.927Z,10.00
2022-12-05T22:26:37.398Z,10.00
2022-12-05T22:29:03.876Z,10.20
2022-12-05T22:31:30.400Z,10.10
2022-12-05T22:33:56.943Z,10.20
2022-12-05T22:36:23.419Z,10.00
2022-12-05T22:38:49.887Z,10.10
2022-12-05T22:41:16.367Z,10.30
2022-12-05T22:43:42.836Z,10.10
2022-12-05T22:46:09.369Z,10.10
2022-12-05T22:48:35.872Z,10.00
2022-12-05T22:51:02.326Z,10.00
2022-12-05T22:53:28.799Z,10.10
2022-12-05T22:55:55.276Z,10.00
2022-12-05T22:58:21.752Z,10.00
2022-12-05T23:00:48.239Z,10.20
2022-12-05T23:03:14.717Z,10.10
2022-12-05T23:05:41.214Z,10.10
2022-12-05T23:08:07.718Z,10.00
2022-12-05T23:10:34.222Z,9.90
2022-12-05T23:13:00.703Z,10.00
2022-12-05T23:15:27.160Z,9.90
2022-12-05T23:17:54.397Z,9.80
2022-12-05T23:20:20.881Z,9.90
2022-12-05T23:22:47.345Z,9.90
2022-12-05T23:25:13.811Z,10.00
2022-12-05T23:27:40.305Z,10.00
2022-12-05T23:30:06.756Z,9.90
2022-12-05T23:32:33.242Z,10.00
2022-12-05T23:34:59.700Z,9.80
2022-12-05T23:37:26.173Z,9.90
2022-12-05T23:39:52.632Z,9.90
2022-12-05T23:42:19.104Z,10.00
2022-12-05T23:44:45.568Z,10.00
2022-12-05T23:47:12.089Z,10.00
2022-12-05T23:49:38.575Z,9.90
2022-12-05T23:52:05.049Z,9.90
2022-12-05T23:54:31.512Z,10.00
2022-12-05T23:56:58.003Z,10.10
2022-12-05T23:59:24.467Z,10.10
